Polvadera, New Mexico
Current Conditions -  °F | °C
As of 12:35 PM on Tuesday 21 Oct 2014 (Local Time) from KONM Reporting Station
Overcast Overcast  
Wind Chill: 61°   Ceiling: 9000
Heat Index: 61°   Visibility: 10mi
Dew Point: 49°   Wind: 3mph
Humidity: 64%   Direction: 160°SSE
Pressure: 30.14"   Gusts: NA
Location:  34.2°N, 106.92°W
Report Text: KONM 211835Z AUTO 16003KT 10SM OVC090 16/09 A3014 RMK AO2 T01610092
Loading
Personal Weather Stations






























Interactive Weather Map
Tropical Storm Tracking
New forecast layout! Learn more

10-Day Weather Forecast

Advertisements
Track Severe Weather on mobile